createdAt,value
2023-02-28T00:00:12.732Z,19.48
2023-02-28T00:01:46.080Z,15.35
2023-02-28T00:03:20.026Z,16.42
2023-02-28T00:04:54.141Z,16.92
2023-02-28T00:06:27.482Z,14.23
2023-02-28T00:07:59.817Z,19.17
2023-02-28T00:09:34.593Z,17.38
2023-02-28T00:11:11.502Z,19.20
2023-02-28T00:12:44.927Z,16.80
2023-02-28T00:14:18.044Z,23.33
2023-02-28T00:16:02.204Z,23.35
2023-02-28T00:17:35.372Z,20.33
2023-02-28T00:19:09.032Z,20.35
2023-02-28T00:20:41.249Z,18.73
2023-02-28T00:22:14.996Z,19.13
2023-02-28T00:23:48.475Z,18.05
2023-02-28T00:25:24.849Z,19.13
2023-02-28T00:26:58.115Z,17.73
2023-02-28T00:28:31.742Z,17.23
2023-02-28T00:30:07.838Z,16.45
2023-02-28T00:31:41.400Z,17.95
2023-02-28T00:33:14.788Z,19.77
2023-02-28T00:34:47.062Z,24.13
2023-02-28T00:36:21.647Z,17.63
2023-02-28T00:37:55.010Z,18.33
2023-02-28T00:39:28.279Z,25.70
2023-02-28T00:41:06.145Z,18.67
2023-02-28T00:42:39.440Z,16.48
2023-02-28T00:44:13.124Z,20.83
2023-02-28T00:45:46.408Z,17.50
2023-02-28T00:47:20.103Z,19.10
2023-02-28T00:48:53.529Z,21.65
2023-02-28T00:50:27.103Z,19.20
2023-02-28T00:52:00.232Z,20.13
2023-02-28T00:53:34.727Z,23.67
2023-02-28T00:55:08.457Z,20.40
2023-02-28T00:56:43.154Z,22.35
2023-02-28T00:58:16.485Z,21.80
2023-02-28T00:59:49.923Z,21.67
2023-02-28T01:01:23.301Z,26.50
2023-02-28T01:02:55.914Z,22.40
2023-02-28T01:04:29.503Z,21.88
2023-02-28T01:06:02.906Z,20.63
2023-02-28T01:07:36.029Z,24.77
2023-02-28T01:09:09.892Z,24.77
2023-02-28T01:10:43.385Z,23.65
2023-02-28T01:12:18.213Z,33.85
2023-02-28T01:13:54.615Z,26.77
2023-02-28T01:15:28.079Z,19.27
2023-02-28T01:17:01.372Z,23.50
2023-02-28T01:18:34.947Z,25.00
2023-02-28T01:20:11.144Z,20.15
2023-02-28T01:21:44.710Z,23.75
2023-02-28T01:23:20.414Z,19.38
2023-02-28T01:24:54.081Z,22.00
2023-02-28T01:26:27.429Z,26.90
2023-02-28T01:28:02.290Z,29.60
2023-02-28T01:29:35.656Z,25.10
2023-02-28T01:31:10.081Z,23.25
2023-02-28T01:32:44.596Z,21.63
2023-02-28T01:34:20.190Z,26.52
2023-02-28T01:36:00.152Z,22.13
2023-02-28T01:37:33.558Z,23.08
2023-02-28T01:39:06.930Z,21.00
2023-02-28T01:40:39.546Z,21.85
2023-02-28T01:42:12.734Z,22.85
2023-02-28T01:44:09.587Z,21.75
2023-02-28T01:45:42.252Z,22.48
2023-02-28T01:47:15.818Z,21.13
2023-02-28T01:48:54.004Z,20.50
2023-02-28T01:50:30.631Z,19.63
2023-02-28T01:52:06.042Z,22.65
2023-02-28T01:53:48.734Z,20.50
2023-02-28T01:55:23.519Z,20.48
2023-02-28T01:57:01.365Z,22.33
2023-02-28T01:58:35.139Z,20.40
2023-02-28T02:00:14.341Z,22.23
2023-02-28T02:01:47.540Z,17.45
2023-02-28T02:03:22.859Z,18.42
2023-02-28T02:05:00.361Z,20.92
2023-02-28T02:06:38.199Z,20.08
2023-02-28T02:08:16.498Z,17.38
2023-02-28T02:09:49.947Z,15.85
2023-02-28T02:11:25.422Z,15.65
2023-02-28T02:13:31.944Z,17.67
2023-02-28T02:15:11.844Z,16.75
2023-02-28T02:17:02.452Z,19.90
2023-02-28T02:18:40.467Z,16.95
2023-02-28T02:20:53.182Z,18.10
2023-02-28T02:23:04.038Z,17.98
2023-02-28T02:25:22.210Z,17.48
2023-02-28T02:27:07.453Z,22.58
2023-02-28T02:29:08.753Z,19.85
2023-02-28T02:31:03.116Z,20.77
2023-02-28T02:33:21.315Z,21.33
2023-02-28T02:35:04.051Z,21.20
2023-02-28T02:36:42.763Z,20.58
2023-02-28T02:38:25.405Z,29.83
2023-02-28T02:40:04.548Z,25.98
2023-02-28T02:41:47.421Z,27.38
2023-02-28T02:43:27.308Z,24.60
2023-02-28T02:45:07.653Z,21.15
2023-02-28T02:46:44.803Z,20.42
2023-02-28T02:48:21.750Z,32.83
2023-02-28T02:50:02.211Z,31.42
2023-02-28T02:51:39.571Z,21.38
2023-02-28T02:53:16.065Z,18.52
2023-02-28T02:54:52.167Z,19.70
2023-02-28T02:56:30.000Z,22.58
2023-02-28T02:58:06.775Z,21.88
2023-02-28T02:59:41.815Z,23.35
2023-02-28T03:01:18.548Z,19.58
2023-02-28T03:02:56.007Z,20.27
2023-02-28T03:04:34.458Z,24.00
2023-02-28T03:06:09.326Z,23.83
2023-02-28T03:07:42.925Z,21.25
2023-02-28T03:09:17.680Z,28.52
2023-02-28T03:10:54.696Z,25.90
2023-02-28T03:12:38.245Z,27.33
2023-02-28T03:14:32.103Z,36.05
2023-02-28T03:16:24.174Z,30.40
2023-02-28T03:18:06.769Z,30.60
2023-02-28T03:19:57.911Z,27.05
2023-02-28T03:21:41.245Z,31.38
2023-02-28T03:23:19.343Z,31.60
2023-02-28T03:25:02.105Z,26.73
2023-02-28T03:26:39.245Z,31.52
2023-02-28T03:28:18.020Z,29.50
2023-02-28T03:29:59.519Z,28.00
2023-02-28T03:31:35.794Z,25.42
2023-02-28T03:33:14.641Z,25.88
2023-02-28T03:34:58.175Z,30.75
2023-02-28T03:36:34.628Z,28.20
2023-02-28T03:38:15.515Z,28.80
2023-02-28T03:39:53.785Z,28.00
2023-02-28T03:41:33.249Z,27.05
2023-02-28T03:43:14.526Z,28.33
2023-02-28T03:44:53.636Z,28.50
2023-02-28T03:46:31.935Z,28.60
2023-02-28T03:48:12.199Z,35.25
2023-02-28T03:49:51.616Z,28.98
2023-02-28T03:51:27.653Z,28.73
2023-02-28T03:53:06.033Z,26.75
2023-02-28T03:54:45.998Z,33.35
2023-02-28T03:56:22.942Z,31.05
2023-02-28T03:58:02.817Z,31.30
2023-02-28T03:59:40.050Z,27.63
2023-02-28T04:01:21.407Z,29.65
2023-02-28T04:02:55.834Z,34.97
2023-02-28T04:04:29.409Z,31.33
2023-02-28T04:06:02.911Z,30.30
2023-02-28T04:07:36.812Z,42.78
2023-02-28T04:10:52.125Z,50.80
2023-02-28T04:12:25.938Z,36.30
2023-02-28T04:13:59.266Z,25.27
2023-02-28T04:15:33.306Z,30.48
2023-02-28T04:17:07.249Z,34.80
2023-02-28T04:18:41.318Z,32.70
2023-02-28T04:20:15.590Z,31.23
2023-02-28T04:21:51.059Z,34.83
2023-02-28T04:23:24.661Z,36.28
2023-02-28T04:24:57.007Z,43.33
2023-02-28T04:26:33.468Z,59.45
2023-02-28T04:28:07.118Z,43.05
2023-02-28T04:29:40.782Z,44.95
2023-02-28T04:31:14.084Z,40.38
2023-02-28T04:32:47.665Z,38.20
2023-02-28T04:34:22.435Z,40.47
2023-02-28T04:36:03.751Z,43.33
2023-02-28T04:37:37.996Z,32.92
2023-02-28T04:39:11.906Z,38.63
2023-02-28T04:40:45.633Z,34.90
2023-02-28T04:42:20.365Z,34.05
2023-02-28T04:43:54.583Z,36.35
2023-02-28T04:45:31.240Z,34.72
2023-02-28T04:47:05.292Z,41.08
2023-02-28T04:48:40.260Z,38.88
2023-02-28T04:50:13.601Z,44.22
2023-02-28T04:51:46.886Z,44.42
2023-02-28T04:53:20.613Z,33.22
2023-02-28T04:54:54.019Z,31.42
2023-02-28T04:56:27.247Z,33.03
2023-02-28T04:58:02.287Z,33.75
2023-02-28T04:59:35.798Z,30.75
2023-02-28T05:01:18.473Z,29.00
2023-02-28T05:02:51.828Z,29.42
2023-02-28T05:04:25.073Z,32.08
2023-02-28T05:05:57.250Z,32.63
2023-02-28T05:07:30.901Z,28.50
2023-02-28T05:09:04.968Z,31.58
2023-02-28T05:10:38.756Z,33.17
2023-02-28T05:12:12.066Z,32.47
2023-02-28T05:13:47.578Z,33.17
2023-02-28T05:15:20.993Z,24.15
2023-02-28T05:16:54.545Z,30.05
2023-02-28T05:18:27.895Z,37.55
2023-02-28T05:20:14.666Z,31.50
2023-02-28T05:21:54.241Z,31.70
2023-02-28T05:23:27.380Z,30.15
2023-02-28T05:25:01.399Z,34.20
2023-02-28T05:26:37.403Z,34.53
2023-02-28T05:28:11.070Z,29.65
2023-02-28T05:29:45.845Z,30.80
2023-02-28T05:31:18.183Z,32.65
2023-02-28T05:32:53.686Z,31.42
2023-02-28T05:34:27.113Z,36.63
2023-02-28T05:36:00.403Z,35.42
2023-02-28T05:37:32.500Z,30.95
2023-02-28T05:39:07.310Z,23.42
2023-02-28T05:40:41.621Z,21.63
2023-02-28T05:42:15.033Z,23.08
2023-02-28T05:43:48.978Z,20.25
2023-02-28T05:45:23.815Z,18.25
2023-02-28T05:46:57.076Z,21.63
2023-02-28T05:48:29.397Z,17.83
2023-02-28T05:50:02.700Z,17.08
2023-02-28T05:51:37.461Z,12.88
2023-02-28T05:53:11.598Z,14.88
2023-02-28T05:54:44.781Z,14.10
2023-02-28T05:56:18.076Z,15.18
2023-02-28T05:57:51.785Z,17.88
2023-02-28T05:59:25.125Z,17.80
2023-02-28T06:01:00.356Z,14.05
2023-02-28T06:02:33.697Z,11.20
2023-02-28T06:04:14.302Z,16.23
2023-02-28T06:05:52.680Z,16.80
2023-02-28T06:07:25.781Z,11.18
2023-02-28T06:08:59.248Z,15.63
2023-02-28T06:10:31.823Z,16.33
2023-02-28T06:12:08.350Z,18.05
2023-02-28T06:13:42.028Z,10.98
2023-02-28T06:15:16.284Z,17.80
2023-02-28T06:16:51.123Z,18.60
2023-02-28T06:18:24.465Z,36.10
2023-02-28T06:19:57.935Z,46.03
2023-02-28T06:21:31.730Z,21.83
2023-02-28T06:23:05.643Z,22.80
2023-02-28T06:24:39.071Z,20.52
2023-02-28T06:26:12.503Z,11.93
2023-02-28T06:27:46.282Z,13.60
2023-02-28T06:29:20.058Z,13.93
2023-02-28T06:30:53.509Z,18.85
2023-02-28T06:32:28.683Z,14.43
2023-02-28T06:34:00.840Z,14.98
2023-02-28T06:35:34.300Z,21.38
2023-02-28T06:37:07.727Z,16.08
2023-02-28T06:38:42.097Z,15.57
2023-02-28T06:40:16.083Z,16.17
2023-02-28T06:41:55.513Z,15.55
2023-02-28T06:43:31.199Z,11.88
2023-02-28T06:45:10.338Z,11.82
2023-02-28T06:46:44.382Z,16.65
2023-02-28T06:48:20.126Z,20.17
2023-02-28T06:49:53.672Z,15.57
2023-02-28T06:51:28.375Z,15.32
2023-02-28T06:53:01.655Z,18.90
2023-02-28T06:54:35.042Z,10.10
2023-02-28T06:56:09.634Z,14.55
2023-02-28T06:57:42.969Z,10.60
2023-02-28T06:59:16.106Z,17.90
2023-02-28T07:00:53.425Z,13.05
2023-02-28T07:02:26.717Z,12.85
2023-02-28T07:04:02.378Z,15.50
2023-02-28T07:05:37.092Z,21.60
2023-02-28T07:07:10.504Z,14.40
2023-02-28T07:08:43.928Z,14.23
2023-02-28T07:10:20.115Z,15.07
2023-02-28T07:11:53.478Z,14.73
2023-02-28T07:13:27.106Z,16.27
2023-02-28T07:15:00.659Z,15.35
2023-02-28T07:16:33.793Z,11.07
2023-02-28T07:18:07.234Z,14.50
2023-02-28T07:19:42.380Z,13.57
2023-02-28T07:21:22.732Z,12.93
2023-02-28T07:23:08.929Z,13.13
2023-02-28T07:24:56.039Z,13.93
2023-02-28T07:26:30.142Z,13.95
2023-02-28T07:28:03.736Z,15.65
2023-02-28T07:29:38.443Z,11.50
2023-02-28T07:31:13.477Z,12.88
2023-02-28T07:32:47.250Z,16.42
2023-02-28T07:34:20.502Z,16.20
2023-02-28T07:36:21.770Z,13.05
2023-02-28T07:38:02.107Z,11.82
2023-02-28T07:39:35.319Z,7.95
2023-02-28T07:41:08.771Z,14.38
2023-02-28T07:42:43.117Z,12.55
2023-02-28T07:44:16.741Z,14.15
2023-02-28T07:45:49.997Z,12.68
2023-02-28T07:47:25.500Z,12.85
2023-02-28T07:49:00.828Z,11.07
2023-02-28T07:50:36.254Z,11.93
2023-02-28T07:52:12.308Z,11.00
2023-02-28T07:53:45.644Z,15.65
2023-02-28T07:55:19.580Z,11.77
2023-02-28T07:56:52.968Z,13.48
2023-02-28T07:58:26.893Z,14.32
2023-02-28T08:00:03.541Z,15.00
2023-02-28T08:01:46.148Z,18.55
2023-02-28T08:03:20.301Z,18.95
2023-02-28T08:04:53.807Z,26.08
2023-02-28T08:06:27.866Z,31.17
2023-02-28T08:08:02.955Z,30.55
2023-02-28T08:09:36.930Z,27.27
2023-02-28T08:11:10.068Z,15.85
2023-02-28T08:12:43.316Z,32.65
2023-02-28T08:14:17.660Z,25.05
2023-02-28T08:15:50.945Z,20.42
2023-02-28T08:17:24.238Z,15.80
2023-02-28T08:18:57.600Z,15.98
2023-02-28T08:20:31.119Z,17.55
2023-02-28T08:22:04.831Z,14.45
2023-02-28T08:23:39.770Z,17.90
2023-02-28T08:25:13.165Z,15.23
2023-02-28T08:26:46.577Z,9.98
2023-02-28T08:28:20.305Z,19.63
2023-02-28T08:29:53.498Z,15.70
2023-02-28T08:31:26.831Z,16.23
2023-02-28T08:33:00.750Z,23.15
2023-02-28T08:34:34.244Z,14.02
2023-02-28T08:36:09.052Z,13.57
2023-02-28T08:37:42.411Z,12.35
2023-02-28T08:39:17.629Z,16.73
2023-02-28T08:40:50.822Z,16.73
2023-02-28T08:42:24.169Z,20.58
2023-02-28T08:43:57.407Z,20.90
2023-02-28T08:45:30.842Z,17.88
2023-02-28T08:47:04.503Z,14.65
2023-02-28T08:48:38.953Z,18.88
2023-02-28T08:50:14.560Z,16.58
2023-02-28T08:51:48.365Z,23.48
2023-02-28T08:53:34.754Z,18.38
2023-02-28T08:55:23.120Z,17.30
2023-02-28T08:57:16.954Z,16.52
2023-02-28T08:59:16.766Z,13.18
2023-02-28T09:01:11.311Z,13.65
2023-02-28T09:02:57.369Z,14.40
2023-02-28T09:04:42.803Z,11.30
2023-02-28T09:06:32.080Z,17.40
2023-02-28T09:08:18.329Z,15.85
2023-02-28T09:10:11.836Z,17.77
2023-02-28T09:11:59.814Z,18.85
2023-02-28T09:13:47.537Z,16.80
2023-02-28T09:15:40.733Z,22.52
2023-02-28T09:17:48.807Z,18.95
2023-02-28T09:19:49.377Z,24.58
2023-02-28T09:21:35.632Z,21.63
2023-02-28T09:23:28.774Z,28.00
2023-02-28T09:25:15.955Z,37.30
2023-02-28T09:27:05.578Z,26.20
2023-02-28T09:29:20.811Z,35.13
2023-02-28T09:31:20.971Z,21.92
2023-02-28T09:33:25.528Z,13.68
2023-02-28T09:35:30.831Z,15.43
2023-02-28T09:37:17.710Z,19.42
2023-02-28T09:39:10.771Z,16.45
2023-02-28T09:41:01.757Z,24.52
2023-02-28T09:42:56.999Z,19.20
2023-02-28T09:45:00.817Z,24.77
2023-02-28T09:46:51.803Z,21.65
2023-02-28T09:48:50.819Z,65.50
2023-02-28T09:50:40.885Z,47.05
2023-02-28T09:52:36.759Z,35.10
2023-02-28T09:54:20.372Z,24.63
2023-02-28T09:56:16.801Z,23.63
2023-02-28T09:58:18.739Z,21.42
2023-02-28T10:00:22.891Z,23.90
2023-02-28T10:02:09.038Z,32.80
2023-02-28T10:04:01.335Z,24.73
2023-02-28T10:05:50.845Z,27.13
2023-02-28T10:08:04.760Z,22.58
2023-02-28T10:10:10.787Z,23.52
2023-02-28T10:12:10.849Z,31.05
2023-02-28T10:14:11.793Z,22.88
2023-02-28T10:16:03.466Z,21.17
2023-02-28T10:18:08.372Z,22.85
2023-02-28T10:20:09.089Z,18.27
2023-02-28T10:22:03.624Z,26.67
2023-02-28T10:23:53.067Z,18.23
2023-02-28T10:25:33.044Z,18.42
2023-02-28T10:27:24.665Z,18.75
2023-02-28T10:29:13.075Z,16.98
2023-02-28T10:31:14.232Z,19.65
2023-02-28T10:33:07.993Z,16.33
2023-02-28T10:35:07.893Z,20.05
2023-02-28T10:37:14.766Z,17.48
2023-02-28T10:39:08.849Z,14.13
2023-02-28T10:40:56.336Z,16.45
2023-02-28T10:42:55.786Z,16.33
2023-02-28T10:44:50.836Z,16.65
2023-02-28T10:46:31.522Z,25.13
2023-02-28T10:48:38.843Z,21.05
2023-02-28T10:50:55.463Z,20.70
2023-02-28T10:52:39.570Z,16.95
2023-02-28T10:54:27.820Z,23.42
2023-02-28T10:56:23.319Z,27.75
2023-02-28T10:58:23.685Z,26.73
2023-02-28T11:00:26.845Z,20.52
2023-02-28T11:02:45.935Z,18.00
2023-02-28T11:04:52.007Z,18.00
2023-02-28T11:06:38.784Z,18.55
2023-02-28T11:08:33.883Z,20.70
2023-02-28T11:10:22.633Z,23.70
2023-02-28T11:12:17.884Z,21.10
2023-02-28T11:14:08.106Z,21.20
2023-02-28T11:16:09.005Z,22.77
2023-02-28T11:17:56.579Z,21.23
2023-02-28T11:19:49.097Z,21.02
2023-02-28T11:21:38.982Z,20.63
2023-02-28T11:23:37.847Z,20.35
2023-02-28T11:25:32.185Z,15.15
2023-02-28T11:27:55.949Z,14.02
2023-02-28T11:29:48.893Z,17.85
2023-02-28T11:31:49.905Z,14.38
2023-02-28T11:33:46.047Z,25.15
2023-02-28T11:35:43.823Z,15.63
2023-02-28T11:37:32.243Z,18.67
2023-02-28T11:39:28.365Z,15.95
2023-02-28T11:41:40.257Z,16.85
2023-02-28T11:43:47.249Z,11.82
2023-02-28T11:45:31.001Z,9.60
2023-02-28T11:47:15.161Z,12.63
2023-02-28T11:49:00.587Z,16.77
2023-02-28T11:50:50.020Z,16.23
2023-02-28T11:52:36.571Z,12.32
2023-02-28T11:54:26.765Z,12.30
2023-02-28T11:56:06.434Z,15.73
2023-02-28T11:57:55.488Z,13.15
2023-02-28T11:59:53.300Z,16.25
2023-02-28T12:01:43.317Z,15.45
2023-02-28T12:03:33.775Z,11.25
2023-02-28T12:05:20.086Z,16.02
2023-02-28T12:07:03.744Z,12.93
2023-02-28T12:08:51.475Z,10.55
2023-02-28T12:10:27.307Z,12.05
2023-02-28T12:12:11.743Z,13.85
2023-02-28T12:13:56.725Z,12.60
2023-02-28T12:15:44.897Z,11.02
2023-02-28T12:17:28.779Z,9.15
2023-02-28T12:19:15.444Z,7.60
2023-02-28T12:20:53.614Z,12.13
2023-02-28T12:22:32.696Z,12.30
2023-02-28T12:24:21.203Z,10.25
2023-02-28T12:26:04.578Z,12.07
2023-02-28T12:27:42.439Z,11.05
2023-02-28T12:29:21.422Z,13.00
2023-02-28T12:31:01.014Z,15.55
2023-02-28T12:32:37.606Z,11.98
2023-02-28T12:34:18.037Z,14.20
2023-02-28T12:35:56.724Z,13.25
2023-02-28T12:37:33.992Z,14.23
2023-02-28T12:39:13.440Z,13.07
2023-02-28T12:40:51.179Z,14.93
2023-02-28T12:42:30.294Z,11.73
2023-02-28T12:44:11.305Z,13.35
2023-02-28T12:45:51.068Z,11.25
2023-02-28T12:47:27.156Z,10.98
2023-02-28T12:49:07.347Z,10.73
2023-02-28T12:50:43.237Z,10.82
2023-02-28T12:52:22.808Z,14.73
2023-02-28T12:54:07.202Z,16.35
2023-02-28T12:55:46.524Z,16.35
2023-02-28T12:57:29.685Z,17.20
2023-02-28T12:59:13.033Z,18.38
2023-02-28T13:01:05.764Z,27.02
2023-02-28T13:03:24.946Z,27.25
2023-02-28T13:05:27.529Z,21.25
2023-02-28T13:07:26.576Z,19.13
2023-02-28T13:09:07.101Z,21.65
2023-02-28T13:10:44.505Z,20.63
2023-02-28T13:12:21.654Z,21.73
2023-02-28T13:14:01.222Z,27.38
2023-02-28T13:15:39.217Z,24.23
2023-02-28T13:17:15.193Z,19.58
2023-02-28T13:18:49.371Z,11.70
2023-02-28T13:20:25.542Z,14.40
2023-02-28T13:22:00.170Z,17.33
2023-02-28T13:24:06.173Z,13.90
2023-02-28T13:25:58.487Z,14.75
2023-02-28T13:27:37.815Z,14.35
2023-02-28T13:29:39.835Z,18.92
2023-02-28T13:31:13.304Z,19.73
2023-02-28T13:32:46.487Z,12.02
2023-02-28T13:34:19.623Z,15.82
2023-02-28T13:36:25.182Z,13.48
2023-02-28T13:38:17.515Z,14.40
2023-02-28T13:39:54.471Z,15.73
2023-02-28T13:41:45.478Z,18.13
2023-02-28T13:43:27.875Z,12.45
2023-02-28T13:45:26.200Z,15.00
2023-02-28T13:47:31.774Z,33.78
2023-02-28T13:49:30.099Z,29.50
2023-02-28T13:51:41.977Z,12.00
2023-02-28T13:53:50.591Z,18.75
2023-02-28T13:55:34.457Z,27.70
2023-02-28T13:57:22.981Z,21.45
2023-02-28T13:59:01.156Z,12.15
2023-02-28T14:00:46.212Z,14.80
2023-02-28T14:02:43.389Z,15.27
2023-02-28T14:04:56.512Z,21.63
2023-02-28T14:06:33.456Z,11.35
2023-02-28T14:08:14.862Z,16.55
2023-02-28T14:09:54.198Z,16.17
2023-02-28T14:11:35.928Z,16.42
2023-02-28T14:13:31.852Z,18.77
2023-02-28T14:15:07.023Z,20.00
2023-02-28T14:16:46.166Z,14.27
2023-02-28T14:18:27.353Z,14.70
2023-02-28T14:20:01.013Z,12.80
2023-02-28T14:21:36.685Z,14.95
2023-02-28T14:23:20.566Z,19.13
2023-02-28T14:25:17.849Z,24.60
2023-02-28T14:27:05.815Z,13.07
2023-02-28T14:28:58.040Z,20.92
2023-02-28T14:31:03.060Z,16.08
2023-02-28T14:32:44.046Z,23.73
2023-02-28T14:34:34.679Z,17.67
2023-02-28T14:36:20.442Z,7.13
2023-02-28T14:37:55.697Z,9.20
2023-02-28T14:39:32.509Z,10.73
2023-02-28T14:41:09.189Z,14.90
2023-02-28T14:42:49.816Z,8.35
2023-02-28T14:44:24.932Z,11.80
2023-02-28T14:46:01.735Z,9.35
2023-02-28T14:47:37.709Z,23.33
2023-02-28T14:49:22.527Z,87.13
2023-02-28T14:50:59.232Z,11.48
2023-02-28T14:52:34.554Z,14.43
2023-02-28T14:54:07.862Z,11.57
2023-02-28T14:55:47.493Z,13.23
2023-02-28T14:57:25.848Z,10.20
2023-02-28T14:59:00.617Z,11.13
2023-02-28T15:00:35.968Z,14.82
2023-02-28T15:02:19.883Z,19.55
2023-02-28T15:04:02.409Z,16.42
2023-02-28T15:05:37.237Z,22.27
2023-02-28T15:07:11.042Z,36.72
2023-02-28T15:08:44.225Z,34.05
2023-02-28T15:10:21.024Z,24.55
2023-02-28T15:11:54.334Z,27.00
2023-02-28T15:13:38.190Z,20.55
2023-02-28T15:15:19.596Z,20.48
2023-02-28T15:16:58.322Z,14.55
2023-02-28T15:18:45.802Z,16.42
2023-02-28T15:20:20.442Z,24.65
2023-02-28T15:22:00.239Z,12.45
2023-02-28T15:23:35.101Z,10.32
2023-02-28T15:25:12.208Z,16.95
2023-02-28T15:26:58.691Z,15.95
2023-02-28T15:28:32.778Z,19.77
2023-02-28T15:30:09.574Z,15.95
2023-02-28T15:31:57.002Z,10.20
2023-02-28T15:33:32.240Z,17.25
2023-02-28T15:35:22.507Z,11.82
2023-02-28T15:36:55.894Z,16.10
2023-02-28T15:38:30.479Z,12.20
2023-02-28T15:40:13.785Z,8.80
2023-02-28T15:41:47.215Z,10.77
2023-02-28T15:43:26.918Z,12.40
2023-02-28T15:45:00.780Z,26.00
2023-02-28T15:46:34.145Z,14.07
2023-02-28T15:48:18.640Z,25.52
2023-02-28T15:49:55.083Z,8.10
2023-02-28T15:51:33.710Z,31.95
2023-02-28T15:53:15.870Z,13.77
2023-02-28T15:54:49.804Z,21.50
2023-02-28T15:56:27.083Z,9.73
2023-02-28T15:58:03.999Z,9.45
2023-02-28T15:59:39.082Z,14.20
2023-02-28T16:01:26.523Z,20.65
2023-02-28T16:02:59.849Z,12.05
2023-02-28T16:04:34.520Z,22.23
2023-02-28T16:06:30.352Z,11.85
2023-02-28T16:08:15.486Z,11.80
2023-02-28T16:09:49.223Z,11.77
2023-02-28T16:11:23.749Z,17.15
2023-02-28T16:12:58.436Z,13.10
2023-02-28T16:14:32.778Z,15.75
2023-02-28T16:16:06.611Z,19.02
2023-02-28T16:17:41.487Z,26.67
2023-02-28T16:19:15.202Z,21.80
2023-02-28T16:20:49.723Z,11.38
2023-02-28T16:22:23.210Z,10.70
2023-02-28T16:23:56.431Z,12.35
2023-02-28T16:25:36.643Z,8.85
2023-02-28T16:27:18.876Z,15.23
2023-02-28T16:28:53.466Z,14.80
2023-02-28T16:30:29.214Z,11.75
2023-02-28T16:32:04.011Z,13.13
2023-02-28T16:33:37.271Z,13.00
2023-02-28T16:35:13.229Z,15.38
2023-02-28T16:36:49.330Z,18.42
2023-02-28T16:38:22.761Z,11.23
2023-02-28T16:39:56.184Z,13.88
2023-02-28T16:41:31.230Z,12.45
2023-02-28T16:43:09.527Z,9.55
2023-02-28T16:44:42.949Z,8.43
2023-02-28T16:46:17.696Z,9.68
2023-02-28T16:47:51.064Z,7.95
2023-02-28T16:49:24.325Z,7.57
2023-02-28T16:50:58.294Z,6.15
2023-02-28T16:52:32.838Z,9.38
2023-02-28T16:54:06.098Z,10.65
2023-02-28T16:55:39.615Z,38.42
2023-02-28T16:57:22.059Z,53.67
2023-02-28T16:59:00.179Z,27.23
2023-02-28T17:00:35.156Z,19.77
2023-02-28T17:02:14.759Z,15.63
2023-02-28T17:03:48.236Z,14.65
2023-02-28T17:05:21.445Z,17.25
2023-02-28T17:06:54.843Z,10.30
2023-02-28T17:08:30.995Z,14.88
2023-02-28T17:10:09.680Z,12.50
2023-02-28T17:11:42.901Z,14.32
2023-02-28T17:13:16.170Z,8.75
2023-02-28T17:14:49.580Z,12.80
2023-02-28T17:16:27.866Z,9.88
2023-02-28T17:18:01.095Z,12.70
2023-02-28T17:19:35.051Z,7.32
2023-02-28T17:21:15.103Z,11.48
2023-02-28T17:22:48.351Z,12.77
2023-02-28T17:24:30.917Z,19.58
2023-02-28T17:26:07.614Z,26.17
2023-02-28T17:27:40.873Z,35.05
2023-02-28T17:29:18.448Z,36.78
2023-02-28T17:30:51.599Z,28.35
2023-02-28T17:32:25.653Z,31.98
2023-02-28T17:33:59.143Z,25.25
2023-02-28T17:35:32.503Z,14.60
2023-02-28T17:37:05.726Z,17.80
2023-02-28T17:38:38.919Z,15.43
2023-02-28T17:40:18.275Z,16.10
2023-02-28T17:41:51.535Z,14.73
2023-02-28T17:43:24.761Z,29.17
2023-02-28T17:44:57.937Z,17.60
2023-02-28T17:46:31.816Z,49.50
2023-02-28T17:48:05.747Z,37.47
2023-02-28T17:49:38.944Z,40.72
2023-02-28T17:51:14.901Z,35.63
2023-02-28T17:52:48.177Z,30.95
2023-02-28T17:54:21.411Z,21.77
2023-02-28T17:55:56.101Z,25.30
2023-02-28T17:57:29.345Z,19.92
2023-02-28T17:59:02.705Z,24.13
2023-02-28T18:00:35.848Z,42.88
2023-02-28T18:02:09.169Z,44.83
2023-02-28T18:03:42.329Z,38.03
2023-02-28T18:05:15.712Z,32.40
2023-02-28T18:06:51.183Z,20.30
2023-02-28T18:08:25.323Z,18.35
2023-02-28T18:09:59.947Z,20.75
2023-02-28T18:11:44.730Z,20.70
2023-02-28T18:13:18.070Z,10.73
2023-02-28T18:14:51.288Z,12.80
2023-02-28T18:16:24.618Z,14.80
2023-02-28T18:17:58.218Z,44.42
2023-02-28T18:19:31.543Z,14.93
2023-02-28T18:21:06.190Z,12.77
2023-02-28T18:22:41.289Z,16.50
2023-02-28T18:24:16.082Z,17.40
2023-02-28T18:25:49.672Z,24.20
2023-02-28T18:27:24.457Z,19.55
2023-02-28T18:28:59.766Z,24.75
2023-02-28T18:30:37.540Z,15.55
2023-02-28T18:32:11.264Z,18.60
2023-02-28T18:33:45.252Z,20.50
2023-02-28T18:35:36.236Z,20.63
2023-02-28T18:37:11.721Z,15.00
2023-02-28T18:38:46.115Z,17.02
2023-02-28T18:40:19.657Z,13.45
2023-02-28T18:41:52.958Z,18.27
2023-02-28T18:43:27.989Z,17.98
2023-02-28T18:45:01.140Z,11.88
2023-02-28T18:46:35.608Z,9.50
2023-02-28T18:48:08.801Z,12.65
2023-02-28T18:49:42.598Z,11.30
2023-02-28T18:51:18.450Z,11.85
2023-02-28T18:52:51.904Z,10.05
2023-02-28T18:54:25.713Z,12.48
2023-02-28T18:56:01.854Z,9.15
2023-02-28T18:57:37.838Z,6.72
2023-02-28T18:59:12.742Z,11.50
2023-02-28T19:00:45.950Z,10.93
2023-02-28T19:02:19.495Z,18.33
2023-02-28T19:03:52.945Z,14.23
2023-02-28T19:05:28.174Z,7.28
2023-02-28T19:07:02.988Z,10.40
2023-02-28T19:08:36.336Z,7.63
2023-02-28T19:10:11.942Z,9.90
2023-02-28T19:11:45.169Z,22.80
2023-02-28T19:13:18.428Z,20.77
2023-02-28T19:14:53.108Z,17.48
2023-02-28T19:16:28.131Z,8.38
2023-02-28T19:18:01.479Z,8.60
2023-02-28T19:19:34.697Z,7.47
2023-02-28T19:21:08.603Z,8.40
2023-02-28T19:22:42.066Z,11.32
2023-02-28T19:24:15.163Z,16.05
2023-02-28T19:25:47.664Z,10.93
2023-02-28T19:27:20.937Z,10.63
2023-02-28T19:28:54.865Z,11.10
2023-02-28T19:30:30.198Z,9.65
2023-02-28T19:32:05.279Z,13.40
2023-02-28T19:33:38.699Z,8.82
2023-02-28T19:35:12.064Z,7.35
2023-02-28T19:36:45.174Z,7.65
2023-02-28T19:38:18.583Z,8.38
2023-02-28T19:39:54.569Z,7.65
2023-02-28T19:41:27.997Z,7.55
2023-02-28T19:43:03.722Z,7.10
2023-02-28T19:44:38.101Z,7.63
2023-02-28T19:46:13.398Z,9.20
2023-02-28T19:47:46.554Z,9.15
2023-02-28T19:49:19.908Z,9.02
2023-02-28T19:50:53.703Z,11.40
2023-02-28T19:52:27.208Z,9.73
2023-02-28T19:54:00.382Z,8.25
2023-02-28T19:55:33.590Z,6.85
2023-02-28T19:57:06.780Z,5.45
2023-02-28T19:58:39.601Z,7.22
2023-02-28T20:00:15.373Z,5.07
2023-02-28T20:01:50.111Z,5.07
2023-02-28T20:03:23.857Z,8.98
2023-02-28T20:04:59.243Z,9.25
2023-02-28T20:06:34.777Z,11.30
2023-02-28T20:08:08.351Z,17.13
2023-02-28T20:09:41.701Z,12.77
2023-02-28T20:11:17.134Z,12.23
2023-02-28T20:12:51.105Z,9.38
2023-02-28T20:14:24.664Z,9.05
2023-02-28T20:16:00.777Z,20.10
2023-02-28T20:17:35.567Z,25.50
2023-02-28T20:19:09.078Z,9.15
2023-02-28T20:20:42.135Z,11.13
2023-02-28T20:22:15.334Z,11.52
2023-02-28T20:23:49.716Z,9.57
2023-02-28T20:25:23.134Z,13.85
2023-02-28T20:26:57.506Z,13.40
2023-02-28T20:28:30.801Z,10.93
2023-02-28T20:30:05.258Z,11.45
2023-02-28T20:31:43.120Z,16.35
2023-02-28T20:33:18.494Z,16.13
2023-02-28T20:34:51.785Z,10.80
2023-02-28T20:36:25.076Z,11.93
2023-02-28T20:37:58.383Z,14.68
2023-02-28T20:39:31.745Z,13.75
2023-02-28T20:41:07.011Z,7.47
2023-02-28T20:42:40.307Z,5.88
2023-02-28T20:44:14.630Z,4.47
2023-02-28T20:45:52.678Z,6.82
2023-02-28T20:47:25.941Z,5.70
2023-02-28T20:49:01.267Z,6.40
2023-02-28T20:50:34.448Z,7.43
2023-02-28T20:52:07.525Z,7.38
2023-02-28T20:53:40.727Z,8.55
2023-02-28T20:55:14.714Z,8.25
2023-02-28T20:56:47.991Z,8.18
2023-02-28T20:58:21.118Z,6.10
2023-02-28T20:59:54.212Z,7.65
2023-02-28T21:01:30.000Z,7.90
2023-02-28T21:03:03.365Z,11.25
2023-02-28T21:04:37.894Z,10.60
2023-02-28T21:06:11.231Z,7.88
2023-02-28T21:07:44.818Z,8.38
2023-02-28T21:09:18.069Z,9.77
2023-02-28T21:10:51.293Z,7.60
2023-02-28T21:12:24.481Z,9.95
2023-02-28T21:14:00.597Z,10.27
2023-02-28T21:15:33.769Z,14.15
2023-02-28T21:17:10.399Z,12.55
2023-02-28T21:18:43.886Z,14.32
2023-02-28T21:20:22.032Z,9.50
2023-02-28T21:21:56.326Z,9.52
2023-02-28T21:23:29.403Z,8.90
2023-02-28T21:25:02.699Z,7.65
2023-02-28T21:26:36.051Z,9.80